Charlottetown, Prince Edward Island

7:02 PM ADT on July 05, 2015 (GMT -0300)
Charlottetown | | Change Station
CLOSE
Current Station
Airport
Location: Charlottetown,
Elevation: 157 ft
Nearby Weather Stations

Elev 157 ft 46.29 °N, 63.13 °W | Updated 1 hour ago

Mostly Cloudy
Mostly Cloudy
70 °F
Feels Like 70 °F
N
9
Wind Variable Wind from SSW

Today
High -- | Low -- °F
--% Chance of Precip.
Yesterday
High -- | Low -- °F
Precip. -- in
5:26 AM 9:06 PM
Waning Gibbous, 81% visible
Pressure 29.93 in
Visibility 15.0 miles
Clouds Few 2400 ft
Scattered Clouds 17000 ft
Mostly Cloudy 22000 ft
Mostly Cloudy 30000 ft
Dew Point 59 °F
Humidity 68%
Rainfall 0.00 in
Snow Depth Not available.
UV 2 out of 12
Pollen Not available.
Air Quality Not available.
Flu Activity Not available.
METAR CYYG 052100Z 20008KT 15SM FEW024 SCT170 BKN220 BKN300 21/15 A2993 RMK CU1AC4CC2CI1 CU TR SLP134 DENSITY ALT 900FT

More Conditions Fewer Conditions

Pressure 29.93 in
Visibility 15.0 miles
Clouds Few 2400 ft
Scattered Clouds 17000 ft
Mostly Cloudy 22000 ft
Mostly Cloudy 30000 ft
Dew Point 59 °F
Humidity 68%
Rainfall 0.00 in
Snow Depth Not available.
UV 2 out of 12
Pollen Not available.
Air Quality Not available.
Flu Activity Not available.
METAR CYYG 052100Z 20008KT 15SM FEW024 SCT170 BKN220 BKN300 21/15 A2993 RMK CU1AC4CC2CI1 CU TR SLP134 DENSITY ALT 900FT

More Conditions Fewer Conditions

10-Day Weather Forecast

×

Almanac

Astronomy

Jul. 05, 2015 Rise Set
Actual Time
Civil Twilight
Nautical Twilight
Astronomical Twilight
Moon
Length of Visible Light
Length of Day
Tomorrow will be .
, % of the Moon is Illuminated

Today's Extremes

Country Highs Country Lows

Community

WunderPhotos

Upload Photos

1,835,404 photos uploaded!

WunderBlogs® & News

Nearby

Air Quality

  Air Quality AQ Index Pollutant
Not available.

Snow Depth

Station Depth Elevation

Earthquake Activity

City Distance Mag. Time & Date
Minimum magnitude displayed is 2.5.

Coastal Water Temperatures

Place Temperature

Stations

Nearby Weather Stations

Station Location Temp. Windchill Dew Point Humidity Wind Precip. Elev Updated Type